Time;durP1;ratioP1;P1;durP2;ratioP2;P2;SDS_P1;SDS_P2;PMS_P1;PMS_P2;Temp;Humidity;BMP_temperature;BMP_pressure;BME280_temperature;BME280_humidity;BME280_pressure;Samples;Min_cycle;Max_cycle;Signal;HPM_P1;HPM_P2
2021/08/04 00:04:07;;;;;;;4.97;3.50;;;14.70;1.00;;;;;;5033706;28;20349;-81
2021/08/04 00:06:39;;;;;;;6.30;2.83;;;14.70;1.00;;;;;;5032408;28;20426;-81
2021/08/04 00:12:27;;;;;;;9.43;3.30;;;;;;;;;;5034068;28;20885;-78
2021/08/04 00:15:15;;;;;;;3.97;3.20;;;14.60;1.00;;;;;;5033645;28;20383;-78
2021/08/04 00:18:20;;;;;;;6.67;3.50;;;14.50;1.00;;;;;;5033512;28;20493;-78
2021/08/04 00:21:02;;;;;;;6.20;3.70;;;14.50;1.00;;;;;;5033531;28;20929;-78
2021/08/04 00:26:49;;;;;;;7.10;3.60;;;14.60;1.00;;;;;;5033722;28;20989;-82
2021/08/04 00:32:39;;;;;;;11.00;3.90;;;14.70;1.00;;;;;;5028427;28;20188;-81
2021/08/04 00:35:26;;;;;;;7.67;4.00;;;14.80;1.00;;;;;;5032465;28;20469;-82
2021/08/04 00:47:58;;;;;;;7.10;4.53;;;14.80;1.00;;;;;;5039616;28;20408;-81
2021/08/04 00:50:56;;;;;;;5.40;3.77;;;14.80;1.00;;;;;;5038534;28;20763;-81
2021/08/04 00:53:32;;;;;;;8.23;4.93;;;14.80;1.00;;;;;;5020296;28;20193;-81
2021/08/04 00:59:56;;;;;;;7.17;4.37;;;14.80;1.00;;;;;;5039729;28;20888;-78
2021/08/04 01:05:53;;;;;;;6.00;4.07;;;14.90;1.00;;;;;;5039465;28;20398;-78
2021/08/04 01:11:47;;;;;;;9.40;4.23;;;15.00;1.00;;;;;;5040179;28;20394;-81
2021/08/04 01:14:16;;;;;;;9.30;4.50;;;15.10;1.00;;;;;;5039664;28;20377;-81
2021/08/04 01:17:03;;;;;;;9.77;3.40;;;15.20;1.00;;;;;;5039326;28;20917;-81
2021/08/04 01:20:05;;;;;;;6.73;3.67;;;15.20;1.00;;;;;;5039803;28;20795;-81
2021/08/04 01:29:19;;;;;;;10.00;3.90;;;15.40;1.00;;;;;;5025527;28;20429;-78
2021/08/04 01:32:00;;;;;;;8.90;4.00;;;15.40;1.00;;;;;;5039314;28;20396;-77
2021/08/04 01:34:28;;;;;;;11.80;3.97;;;15.50;1.00;;;;;;5034666;28;20443;-78
2021/08/04 01:40:56;;;;;;;14.93;4.33;;;15.60;1.00;;;;;;5039226;28;20496;-78
2021/08/04 01:47:15;;;;;;;13.10;4.07;;;15.70;1.00;;;;;;5036763;28;20389;-78
2021/08/04 01:49:46;;;;;;;6.73;4.00;;;15.70;1.00;;;;;;5039193;28;20425;-79
2021/08/04 01:59:14;;;;;;;10.97;4.27;;;15.80;1.00;;;;;;5019340;28;20415;-81
2021/08/04 02:02:18;;;;;;;10.07;4.30;;;16.50;1.00;;;;;;5035042;28;20385;-81
2021/08/04 02:08:41;;;;;;;8.47;3.90;;;15.90;1.00;;;;;;4994403;28;20899;-81
2021/08/04 02:18:09;;;;;;;12.33;4.20;;;15.90;1.00;;;;;;4994095;28;20440;-81
2021/08/04 02:21:27;;;;;;;8.47;5.03;;;16.00;1.00;;;;;;4977966;28;20419;-81
2021/08/04 02:31:26;;;;;;;9.30;4.43;;;16.10;1.00;;;;;;4991145;28;21069;-78
2021/08/04 02:37:13;;;;;;;5.17;3.90;;;16.10;1.00;;;;;;4982579;28;20450;-78
2021/08/04 02:39:51;;;;;;;6.73;4.47;;;16.10;1.00;;;;;;5029422;28;20435;-78
2021/08/04 02:42:45;;;;;;;6.60;4.80;;;16.20;1.00;;;;;;5035737;28;20395;-78
2021/08/04 02:51:55;;;;;;;7.83;4.77;;;16.10;1.00;;;;;;5035091;28;20741;-81
2021/08/04 02:54:50;;;;;;;5.27;4.73;;;16.10;1.00;;;;;;5035424;28;20399;-81
2021/08/04 02:57:32;;;;;;;9.47;4.90;;;16.10;1.00;;;;;;5018824;28;20444;-82
2021/08/04 03:00:09;;;;;;;9.53;4.50;;;16.20;1.00;;;;;;5034644;28;20414;-78
2021/08/04 03:02:44;;;;;;;7.03;4.60;;;16.20;1.00;;;;;;5014392;28;20447;-78
2021/08/04 03:12:26;;;;;;;6.67;4.27;;;16.20;1.00;;;;;;5034200;28;20381;-78
2021/08/04 03:15:33;;;;;;;5.00;4.50;;;16.20;1.00;;;;;;5035154;28;20483;-81
2021/08/04 03:24:42;;;;;;;9.90;4.27;;;16.30;1.00;;;;;;5029525;28;20409;-81
2021/08/04 03:27:08;;;;;;;14.90;4.53;;;16.30;1.00;;;;;;5025827;28;20394;-81
2021/08/04 03:33:14;;;;;;;10.37;4.80;;;16.40;1.00;;;;;;5022266;28;20192;-78
2021/08/04 03:39:02;;;;;;;9.90;5.23;;;16.40;1.00;;;;;;5033455;28;20513;-78
2021/08/04 03:41:32;;;;;;;9.17;4.87;;;16.50;1.00;;;;;;5026186;28;20446;-78
2021/08/04 03:47:20;;;;;;;5.00;4.20;;;16.30;1.00;;;;;;5034177;28;20381;-78
2021/08/04 03:49:56;;;;;;;6.90;4.87;;;16.40;1.00;;;;;;5033810;28;20394;-78
2021/08/04 03:52:27;;;;;;;19.30;5.60;;;16.40;1.00;;;;;;5033837;28;20862;-78
2021/08/04 03:55:03;;;;;;;9.73;5.10;;;16.40;1.00;;;;;;5033921;28;20866;-78
2021/08/04 03:57:29;;;;;;;13.73;5.07;;;16.40;1.00;;;;;;5014027;28;20439;-78
2021/08/04 03:59:55;;;;;;;6.17;4.70;;;16.50;1.00;;;;;;5021144;28;20387;-79
2021/08/04 04:02:20;;;;;;;6.87;4.50;;;16.50;1.00;;;;;;5013698;28;20484;-79
2021/08/04 04:04:46;;;;;;;7.33;5.00;;;16.40;1.00;;;;;;5031111;28;20175;-79
2021/08/04 04:13:55;;;;;;;9.23;6.03;;;16.50;1.00;;;;;;5033915;28;20385;-78
2021/08/04 04:16:38;;;;;;;12.03;4.73;;;16.60;1.00;;;;;;5033129;28;20417;-79
2021/08/04 04:19:50;;;;;;;19.17;5.30;;;16.50;1.00;;;;;;5033367;28;20188;-79
2021/08/04 04:22:32;;;;;;;7.10;5.20;;;16.50;1.00;;;;;;5026388;28;20428;-78
2021/08/04 04:28:20;;;;;;;8.07;5.07;;;16.50;1.00;;;;;;5033709;28;20481;-83
2021/08/04 04:37:29;;;;;;;9.00;6.10;;;16.50;1.00;;;;;;5025685;28;20812;-83
2021/08/04 04:47:20;;;;;;;13.57;5.03;;;16.50;1.00;;;;;;5013554;28;20416;-78
2021/08/04 04:49:45;;;;;;;8.83;5.10;;;16.50;1.00;;;;;;5032620;28;20411;-77
2021/08/04 05:05:39;;;;;;;17.60;5.40;;;16.60;1.00;;;;;;5033674;28;20397;-86
2021/08/04 05:08:44;;;;;;;9.57;6.40;;;16.60;1.00;;;;;;5033749;28;20419;-86
2021/08/04 05:14:40;;;;;;;12.07;5.63;;;;;;;;;;5033646;28;20386;-83
2021/08/04 05:20:30;;;;;;;12.07;5.90;;;;;;;;;;5014007;28;20369;-83
2021/08/04 05:26:17;;;;;;;10.03;6.30;;;17.10;1.00;;;;;;5033129;28;20768;-83
2021/08/04 05:29:14;;;;;;;6.83;5.70;;;17.20;1.00;;;;;;5034966;28;20408;-83
2021/08/04 05:31:44;;;;;;;8.60;4.47;;;17.30;1.00;;;;;;5031392;28;20179;-78
2021/08/04 05:37:56;;;;;;;8.30;5.83;;;17.30;1.00;;;;;;5026106;28;20473;-77
2021/08/04 05:40:50;;;;;;;17.27;5.50;;;17.40;1.00;;;;;;5036625;28;20419;-77
2021/08/04 05:46:37;;;;;;;10.90;5.80;;;17.50;1.00;;;;;;5016318;28;20382;-79
2021/08/04 05:49:03;;;;;;;11.47;4.70;;;17.50;1.00;;;;;;5026099;28;20941;-79
2021/08/04 05:51:28;;;;;;;8.83;5.40;;;17.60;1.00;;;;;;5032322;28;20231;-79
2021/08/04 05:53:54;;;;;;;7.90;5.43;;;17.60;1.00;;;;;;5035755;28;20570;-79
2021/08/04 05:56:21;;;;;;;13.20;5.80;;;17.60;1.00;;;;;;5035432;28;20596;-79
2021/08/04 05:58:47;;;;;;;9.30;5.67;;;17.60;1.00;;;;;;5035538;28;20208;-79
2021/08/04 06:01:13;;;;;;;13.23;5.33;;;17.60;1.00;;;;;;5029236;28;20415;-79
2021/08/04 06:03:38;;;;;;;14.70;6.70;;;17.70;1.00;;;;;;5033670;28;20390;-79
2021/08/04 06:06:09;;;;;;;7.83;5.87;;;17.70;1.00;;;;;;5030229;28;20405;-79
2021/08/04 06:08:35;;;;;;;12.23;5.60;;;17.80;1.00;;;;;;5014362;28;20862;-79
2021/08/04 06:11:01;;;;;;;7.50;5.80;;;17.80;1.00;;;;;;5028202;28;20404;-79
2021/08/04 06:13:27;;;;;;;8.23;5.80;;;17.90;1.00;;;;;;5015404;28;20455;-79
2021/08/04 06:15:53;;;;;;;12.87;6.60;;;17.90;1.00;;;;;;5015896;28;20195;-79
2021/08/04 06:18:19;;;;;;;8.50;5.70;;;17.90;1.00;;;;;;5015420;28;20161;-79
2021/08/04 06:20:45;;;;;;;12.00;6.10;;;17.90;1.00;;;;;;5015289;28;20426;-79
2021/08/04 06:23:11;;;;;;;8.20;5.50;;;18.10;1.00;;;;;;5015525;28;20403;-79
2021/08/04 06:25:36;;;;;;;10.43;6.77;;;18.20;1.00;;;;;;5028237;28;20400;-80
2021/08/04 06:28:02;;;;;;;13.43;5.70;;;18.20;1.00;;;;;;5034893;28;20238;-79
2021/08/04 06:30:28;;;;;;;8.77;5.90;;;18.40;1.00;;;;;;5032623;28;20651;-78
2021/08/04 06:32:54;;;;;;;7.90;5.80;;;18.40;1.00;;;;;;5028879;28;20492;-77
2021/08/04 06:35:22;;;;;;;8.57;6.13;;;18.70;1.00;;;;;;5030852;28;20397;-77
2021/08/04 06:37:56;;;;;;;9.87;5.57;;;18.70;1.00;;;;;;5034058;28;20179;-77
2021/08/04 06:40:33;;;;;;;8.40;5.57;;;18.90;1.00;;;;;;5030837;28;20864;-77
2021/08/04 06:43:32;;;;;;;7.90;6.00;;;19.00;1.00;;;;;;5031140;28;20389;-77
2021/08/04 06:45:58;;;;;;;17.07;5.77;;;19.00;1.00;;;;;;5031223;28;20425;-80
2021/08/04 06:48:24;;;;;;;11.73;5.50;;;19.50;1.00;;;;;;5031246;28;20421;-80
2021/08/04 06:50:49;;;;;;;10.37;5.90;;;19.60;1.00;;;;;;5031384;28;20192;-79
2021/08/04 06:53:15;;;;;;;7.57;5.23;;;19.70;1.00;;;;;;5030342;28;20470;-79
2021/08/04 06:59:02;;;;;;;6.17;5.57;;;20.00;1.00;;;;;;5030351;28;20266;-80
2021/08/04 07:01:45;;;;;;;8.73;6.10;;;20.00;1.00;;;;;;5023951;28;20866;-79
2021/08/04 07:07:56;;;;;;;10.40;5.57;;;20.20;1.00;;;;;;5029244;28;20403;-77
2021/08/04 07:10:27;;;;;;;10.83;5.67;;;20.40;1.00;;;;;;5025489;28;20408;-77
2021/08/04 07:12:52;;;;;;;9.70;6.60;;;20.40;1.00;;;;;;5034790;28;20460;-77
2021/08/04 07:15:51;;;;;;;7.10;6.13;;;20.40;1.00;;;;;;5035023;28;20382;-78
2021/08/04 07:18:16;;;;;;;12.90;7.47;;;20.40;1.00;;;;;;5034794;28;20160;-79
2021/08/04 07:20:42;;;;;;;20.83;9.20;;;20.40;1.00;;;;;;5034699;28;20392;-81
2021/08/04 07:23:32;;;;;;;8.93;6.83;;;20.40;1.00;;;;;;5017384;28;20196;-80
2021/08/04 07:26:02;;;;;;;8.73;6.90;;;20.30;1.00;;;;;;5015012;28;20157;-80
2021/08/04 07:28:33;;;;;;;10.70;7.90;;;20.10;1.00;;;;;;5014164;28;20390;-80
2021/08/04 07:30:58;;;;;;;19.90;8.47;;;20.00;1.00;;;;;;5014597;28;20402;-80
2021/08/04 07:33:39;;;;;;;10.90;8.03;;;20.00;1.00;;;;;;5031256;28;20909;-80
2021/08/04 07:36:41;;;;;;;11.13;7.30;;;19.90;1.00;;;;;;5034108;28;20199;-80
2021/08/04 07:39:28;;;;;;;12.80;8.30;;;20.00;1.00;;;;;;5034507;28;20511;-80
2021/08/04 07:42:20;;;;;;;9.40;7.23;;;20.00;1.00;;;;;;5033510;28;20401;-81
2021/08/04 07:44:46;;;;;;;11.20;7.27;;;20.20;1.00;;;;;;5026652;28;20412;-80
2021/08/04 07:47:12;;;;;;;7.63;6.83;;;20.50;1.00;;;;;;5027713;28;20392;-78
2021/08/04 07:49:37;;;;;;;8.87;6.57;;;20.70;1.00;;;;;;5016452;28;20273;-78
2021/08/04 07:52:03;;;;;;;7.40;6.33;;;20.70;1.00;;;;;;5029381;28;20196;-78
2021/08/04 07:54:29;;;;;;;8.13;6.60;;;20.90;1.00;;;;;;5033373;28;20171;-78
2021/08/04 07:56:54;;;;;;;8.90;6.77;;;21.00;1.00;;;;;;5031985;28;20461;-78
2021/08/04 07:59:50;;;;;;;9.07;6.60;;;21.00;1.00;;;;;;5032850;28;20182;-77
2021/08/04 08:02:44;;;;;;;9.43;6.30;;;21.00;1.00;;;;;;5019711;28;20659;-80
2021/08/04 08:05:21;;;;;;;7.53;6.30;;;21.10;1.00;;;;;;5018868;28;20466;-80
2021/08/04 08:11:09;;;;;;;7.13;6.33;;;21.50;1.00;;;;;;5013616;28;20424;-80
2021/08/04 08:13:34;;;;;;;7.67;6.53;;;21.40;1.00;;;;;;5013723;28;20401;-81
2021/08/04 08:16:00;;;;;;;9.43;6.60;;;21.30;1.00;;;;;;5013742;28;20860;-78
2021/08/04 08:18:26;;;;;;;9.13;6.20;;;21.30;1.00;;;;;;5013303;28;20523;-78
2021/08/04 08:20:52;;;;;;;7.63;6.17;;;21.20;1.00;;;;;;5020106;28;20158;-77
2021/08/04 08:23:18;;;;;;;7.97;5.70;;;21.30;1.00;;;;;;5032552;28;20425;-77
2021/08/04 08:25:43;;;;;;;14.67;6.53;;;21.80;1.00;;;;;;5032515;28;20542;-77
2021/08/04 08:28:09;;;;;;;5.93;5.33;;;21.90;1.00;;;;;;5032348;28;20191;-77
2021/08/04 08:30:36;;;;;;;9.00;6.27;;;22.30;1.00;;;;;;5033025;28;20195;-80
2021/08/04 08:33:02;;;;;;;6.60;5.73;;;22.70;1.00;;;;;;5031310;28;20642;-80
2021/08/04 08:35:30;;;;;;;8.80;6.60;;;22.90;1.00;;;;;;5026939;28;20447;-81
2021/08/04 08:37:57;;;;;;;6.57;5.47;;;22.70;1.00;;;;;;5013477;28;20423;-80
2021/08/04 08:40:23;;;;;;;9.13;6.50;;;23.00;1.00;;;;;;5014831;28;20437;-81
2021/08/04 08:42:51;;;;;;;9.90;5.60;;;23.00;1.00;;;;;;5019448;28;20452;-80
2021/08/04 08:45:16;;;;;;;8.77;6.73;;;22.90;1.00;;;;;;5017135;28;20420;-80
2021/08/04 08:47:44;;;;;;;6.47;5.87;;;22.80;1.00;;;;;;5013144;28;20917;-81
2021/08/04 08:50:11;;;;;;;15.50;6.17;;;22.70;1.00;;;;;;5012830;28;20618;-80
2021/08/04 08:52:37;;;;;;;6.13;5.53;;;22.60;1.00;;;;;;5013007;28;20460;-80
2021/08/04 08:55:05;;;;;;;8.27;6.50;;;22.60;1.00;;;;;;5023284;28;20761;-80
2021/08/04 08:57:31;;;;;;;8.23;6.43;;;22.80;1.00;;;;;;5011681;28;20217;-80
2021/08/04 08:59:57;;;;;;;7.77;6.00;;;22.80;1.00;;;;;;5027113;28;20407;-81
2021/08/04 09:02:27;;;;;;;10.43;6.83;;;22.80;1.00;;;;;;5034198;28;20406;-78
2021/08/04 09:05:01;;;;;;;7.43;6.73;;;22.80;1.00;;;;;;5036499;28;20399;-78
2021/08/04 09:07:30;;;;;;;7.30;5.77;;;22.70;1.00;;;;;;5036665;28;20423;-78
2021/08/04 09:09:56;;;;;;;5.03;4.53;;;22.70;1.00;;;;;;5035597;28;20461;-77
2021/08/04 09:12:22;;;;;;;9.17;5.63;;;22.70;1.00;;;;;;5021232;28;20441;-77
2021/08/04 09:14:48;;;;;;;5.67;5.03;;;22.70;1.00;;;;;;5023216;28;20176;-77
2021/08/04 09:17:16;;;;;;;8.43;6.03;;;22.60;1.00;;;;;;5016985;28;20649;-81
2021/08/04 09:19:51;;;;;;;6.47;5.80;;;22.50;1.00;;;;;;5016089;28;20479;-80
2021/08/04 09:22:22;;;;;;;6.63;5.93;;;22.50;1.00;;;;;;5020031;28;20434;-80
2021/08/04 09:25:09;;;;;;;6.93;6.10;;;22.40;1.00;;;;;;5021041;28;20429;-80
2021/08/04 09:28:20;;;;;;;8.10;5.60;;;22.30;1.00;;;;;;5025794;28;20416;-79
2021/08/04 09:31:02;;;;;;;7.40;5.93;;;22.30;1.00;;;;;;5020820;28;20411;-80
2021/08/04 09:37:16;;;;;;;6.10;5.50;;;22.10;1.00;;;;;;5036575;28;20508;-80
2021/08/04 09:39:46;;;;;;;5.60;5.10;;;22.10;1.00;;;;;;5034182;28;20517;-80
2021/08/04 09:42:21;;;;;;;9.67;5.30;;;22.10;1.00;;;;;;5015492;28;20928;-80
2021/08/04 09:44:58;;;;;;;8.03;5.03;;;21.80;1.00;;;;;;5035542;28;20913;-80
2021/08/04 09:47:25;;;;;;;5.83;4.80;;;21.90;1.00;;;;;;5036928;28;20395;-80
2021/08/04 09:50:32;;;;;;;4.70;4.30;;;21.90;1.00;;;;;;5036935;28;20398;-80
2021/08/04 09:52:58;;;;;;;4.73;4.27;;;21.90;1.00;;;;;;5034940;28;20398;-80
2021/08/04 09:55:25;;;;;;;4.53;4.13;;;22.00;1.00;;;;;;5015980;28;20510;-80
2021/08/04 09:57:53;;;;;;;4.57;4.17;;;22.10;1.00;;;;;;5016034;28;20156;-80
2021/08/04 10:00:50;;;;;;;7.83;5.10;;;22.10;1.00;;;;;;5021224;28;20410;-80
2021/08/04 10:03:26;;;;;;;9.93;4.13;;;22.10;1.00;;;;;;5036773;28;20401;-77
2021/08/04 10:06:19;;;;;;;5.47;4.97;;;22.10;1.00;;;;;;5035442;28;20425;-76
2021/08/04 10:08:57;;;;;;;6.23;4.10;;;22.10;1.00;;;;;;5036354;28;20406;-77
2021/08/04 10:11:28;;;;;;;7.43;4.40;;;22.10;1.00;;;;;;5036400;28;20400;-77
2021/08/04 10:13:58;;;;;;;14.13;4.60;;;22.20;1.00;;;;;;5035149;28;20398;-79
2021/08/04 10:16:31;;;;;;;5.30;4.90;;;22.30;1.00;;;;;;5036043;28;20441;-80
2021/08/04 10:19:06;;;;;;;5.27;4.77;;;22.40;1.00;;;;;;5036118;28;20391;-82
2021/08/04 10:21:56;;;;;;;5.03;4.53;;;22.60;1.00;;;;;;5026668;28;20479;-83
2021/08/04 10:27:44;;;;;;;4.93;4.40;;;22.90;1.00;;;;;;5015713;28;20942;-82
2021/08/04 10:30:10;;;;;;;8.80;4.67;;;22.80;1.00;;;;;;5032598;28;20786;-82
2021/08/04 10:33:08;;;;;;;4.37;3.97;;;22.80;1.00;;;;;;5035938;28;20415;-82
2021/08/04 10:36:12;;;;;;;5.00;4.50;;;22.90;1.00;;;;;;5035819;28;20418;-81
2021/08/04 10:38:57;;;;;;;4.23;3.53;;;23.20;1.00;;;;;;5034090;28;20489;-81
2021/08/04 10:41:25;;;;;;;3.83;3.53;;;21.40;1.00;;;;;;5025789;28;20465;-83
2021/08/04 10:43:56;;;;;;;15.73;4.07;;;23.50;1.00;;;;;;5032030;28;20918;-81
2021/08/04 10:46:30;;;;;;;4.17;3.70;;;23.60;1.00;;;;;;5028398;28;20828;-81
2021/08/04 10:49:06;;;;;;;4.50;4.10;;;23.70;1.00;;;;;;5034998;28;20391;-77
2021/08/04 10:51:35;;;;;;;3.60;3.30;;;23.80;1.00;;;;;;5025544;28;20437;-76
2021/08/04 10:54:00;;;;;;;4.13;3.73;;;23.90;1.00;;;;;;5033514;28;20508;-77
2021/08/04 10:56:32;;;;;;;3.73;3.27;;;24.00;1.00;;;;;;5027148;28;20544;-77
2021/08/04 10:59:12;;;;;;;3.57;3.27;;;23.90;1.00;;;;;;5024294;28;20643;-77
2021/08/04 11:01:40;;;;;;;10.90;4.07;;;23.90;1.00;;;;;;5034334;28;20467;-77
2021/08/04 11:04:10;;;;;;;5.33;3.07;;;24.10;1.00;;;;;;5030440;28;20417;-77
2021/08/04 11:07:08;;;;;;;3.20;2.90;;;24.10;1.00;;;;;;5021509;28;20428;-76
2021/08/04 11:09:33;;;;;;;3.00;2.80;;;24.30;1.00;;;;;;5021331;28;20433;-76
2021/08/04 11:12:02;;;;;;;3.57;3.27;;;24.40;1.00;;;;;;5022119;28;20795;-76
2021/08/04 11:14:54;;;;;;;3.20;2.90;;;24.50;1.00;;;;;;5022621;28;20189;-76
2021/08/04 11:17:25;;;;;;;3.70;2.90;;;24.50;1.00;;;;;;5018600;28;20983;-76
2021/08/04 11:19:57;;;;;;;3.03;2.83;;;24.60;1.00;;;;;;5034736;28;20414;-76
2021/08/04 11:22:25;;;;;;;2.63;2.43;;;24.80;1.00;;;;;;5034700;28;20429;-76
2021/08/04 11:24:56;;;;;;;3.50;3.00;;;25.00;1.00;;;;;;5032389;28;20899;-76
2021/08/04 11:27:25;;;;;;;3.40;3.07;;;24.90;1.00;;;;;;5024592;28;20419;-76
2021/08/04 11:29:51;;;;;;;3.17;2.97;;;24.80;1.00;;;;;;5015720;28;20484;-77
2021/08/04 11:33:10;;;;;;;5.53;2.53;;;25.20;1.00;;;;;;5034772;28;20501;-80
2021/08/04 11:35:59;;;;;;;2.53;2.33;;;25.10;1.00;;;;;;5034317;28;20412;-80
2021/08/04 11:38:57;;;;;;;3.77;2.97;;;25.60;1.00;;;;;;5034633;28;20471;-80
2021/08/04 11:41:37;;;;;;;2.30;2.20;;;25.80;1.00;;;;;;5028923;28;20405;-79
2021/08/04 11:44:27;;;;;;;2.40;2.20;;;25.70;1.00;;;;;;5032043;28;20458;-79
2021/08/04 11:47:10;;;;;;;2.37;2.20;;;25.70;1.00;;;;;;5034330;28;20493;-80
2021/08/04 11:49:40;;;;;;;3.10;2.60;;;25.90;1.00;;;;;;5035432;28;20389;-80
2021/08/04 11:52:14;;;;;;;2.87;2.67;;;26.00;1.00;;;;;;5043965;28;20957;-80
2021/08/04 11:55:26;;;;;;;2.50;2.30;;;26.30;1.00;;;;;;5033483;28;20428;-80
2021/08/04 11:57:56;;;;;;;4.50;2.40;;;26.20;1.00;;;;;;5014275;28;20506;-80
2021/08/04 12:00:28;;;;;;;12.00;2.73;;;26.30;1.00;;;;;;5014379;28;21006;-80
2021/08/04 12:02:57;;;;;;;3.13;2.60;;;26.20;1.00;;;;;;5029780;28;20532;-76
2021/08/04 12:05:22;;;;;;;2.73;2.50;;;26.10;1.00;;;;;;5014475;28;20481;-76
2021/08/04 12:07:48;;;;;;;5.07;2.83;;;26.20;1.00;;;;;;5014589;28;20966;-76
2021/08/04 12:10:22;;;;;;;3.50;3.10;;;26.00;1.00;;;;;;5014933;28;20163;-76
2021/08/04 12:12:52;;;;;;;5.07;4.00;;;25.80;1.00;;;;;;5033025;28;20538;-76
2021/08/04 12:15:28;;;;;;;5.53;3.07;;;25.80;1.00;;;;;;5023382;28;20442;-76
2021/08/04 12:18:02;;;;;;;3.73;3.43;;;25.50;1.00;;;;;;5026523;28;20429;-77
2021/08/04 12:20:37;;;;;;;7.43;3.30;;;25.40;1.00;;;;;;5029785;28;20425;-76
2021/08/04 12:23:06;;;;;;;3.90;3.60;;;25.40;1.00;;;;;;5033788;28;20437;-76
2021/08/04 12:25:43;;;;;;;7.27;3.33;;;25.40;1.00;;;;;;5033844;28;20877;-77
2021/08/04 12:28:09;;;;;;;3.40;3.10;;;25.40;1.00;;;;;;5033517;28;20390;-76
2021/08/04 12:30:44;;;;;;;3.53;3.20;;;25.30;1.00;;;;;;5033619;28;20581;-77
2021/08/04 12:33:34;;;;;;;4.07;3.43;;;25.20;1.00;;;;;;5033920;28;20484;-80
2021/08/04 12:36:54;;;;;;;3.30;3.00;;;25.10;1.00;;;;;;5033597;28;20457;-80
2021/08/04 12:40:03;;;;;;;7.73;3.00;;;25.00;1.00;;;;;;5033320;28;20904;-79
2021/08/04 12:42:56;;;;;;;3.73;3.10;;;25.00;1.00;;;;;;5032992;28;20475;-79
2021/08/04 12:45:24;;;;;;;3.33;3.03;;;24.90;1.00;;;;;;5019993;28;20430;-80
2021/08/04 12:47:59;;;;;;;3.13;2.93;;;24.80;1.00;;;;;;5027796;28;20436;-78
2021/08/04 12:50:45;;;;;;;3.40;3.10;;;24.80;1.00;;;;;;5031210;28;20429;-77
2021/08/04 12:53:25;;;;;;;5.67;3.13;;;25.10;1.00;;;;;;5028328;28;20544;-78
2021/08/04 12:55:57;;;;;;;3.50;3.20;;;24.80;1.00;;;;;;5030370;28;20524;-77
2021/08/04 12:58:23;;;;;;;4.80;3.23;;;24.60;1.00;;;;;;5024335;28;20505;-78
2021/08/04 13:00:48;;;;;;;3.70;3.00;;;24.90;1.00;;;;;;5018128;28;20443;-77
2021/08/04 13:03:32;;;;;;;3.50;3.20;;;24.90;1.00;;;;;;5022129;28;20520;-80
2021/08/04 13:05:59;;;;;;;7.60;2.87;;;25.30;1.00;;;;;;5027037;28;20179;-80
2021/08/04 13:08:29;;;;;;;3.87;2.90;;;25.30;1.00;;;;;;5032615;28;20438;-80
2021/08/04 13:10:57;;;;;;;3.33;3.00;;;25.30;1.00;;;;;;5032535;28;20463;-80
2021/08/04 13:13:24;;;;;;;3.13;2.60;;;25.30;1.00;;;;;;5032285;28;20835;-80
2021/08/04 13:15:53;;;;;;;2.77;2.57;;;25.40;1.00;;;;;;5032192;28;20396;-80
2021/08/04 13:18:20;;;;;;;3.00;2.80;;;25.40;1.00;;;;;;5013590;28;20432;-80
2021/08/04 13:20:47;;;;;;;4.93;3.00;;;25.60;1.00;;;;;;5031891;28;20465;-80
2021/08/04 13:23:56;;;;;;;2.80;2.60;;;25.60;1.00;;;;;;5031479;28;20952;-80
2021/08/04 13:26:33;;;;;;;2.90;2.70;;;25.60;1.00;;;;;;5031341;28;20787;-80
2021/08/04 13:28:59;;;;;;;6.33;3.07;;;25.90;1.00;;;;;;5032657;28;20399;-80
2021/08/04 13:31:26;;;;;;;2.47;2.27;;;26.10;1.00;;;;;;5032640;28;20439;-80
2021/08/04 13:33:57;;;;;;;2.70;2.50;;;26.10;1.00;;;;;;5032644;28;20170;-77
2021/08/04 13:36:27;;;;;;;2.70;2.50;;;26.30;1.00;;;;;;5032018;28;20785;-77
2021/08/04 13:38:53;;;;;;;2.70;2.50;;;26.50;1.00;;;;;;5031981;28;20468;-77
2021/08/04 13:41:32;;;;;;;5.57;2.33;;;26.60;1.00;;;;;;5031693;28;20427;-77
2021/08/04 13:44:02;;;;;;;5.90;2.10;;;26.70;1.00;;;;;;5031133;28;20568;-77
2021/08/04 13:46:31;;;;;;;3.40;2.60;;;26.80;1.00;;;;;;5034079;28;20434;-77
2021/08/04 13:49:03;;;;;;;1.73;1.63;;;26.80;1.00;;;;;;5029472;28;20997;-77
2021/08/04 13:51:29;;;;;;;1.90;1.80;;;26.90;1.00;;;;;;5027377;28;20930;-77
2021/08/04 13:53:54;;;;;;;1.90;1.80;;;26.80;1.00;;;;;;5026295;28;20426;-77
2021/08/04 13:56:20;;;;;;;1.60;1.50;;;26.80;1.00;;;;;;5034452;28;20463;-77
2021/08/04 13:58:46;;;;;;;2.23;2.07;;;26.90;1.00;;;;;;5032203;28;20192;-78
2021/08/04 14:01:12;;;;;;;2.80;1.63;;;26.80;1.00;;;;;;5035718;28;20630;-79
2021/08/04 14:03:37;;;;;;;1.63;1.53;;;27.00;1.00;;;;;;5035703;28;20179;-82
2021/08/04 14:06:03;;;;;;;2.10;2.00;;;27.00;1.00;;;;;;5027124;28;20268;-84
2021/08/04 14:08:28;;;;;;;3.33;3.03;;;27.20;1.00;;;;;;5021568;28;20196;-84
2021/08/04 14:10:54;;;;;;;2.47;2.27;;;27.10;1.00;;;;;;5031292;28;20182;-83
2021/08/04 14:13:20;;;;;;;5.00;3.20;;;;;;;;;;5024465;28;20645;-83
2021/08/04 14:15:46;;;;;;;3.30;3.00;;;27.20;1.00;;;;;;5026308;28;20196;-83
2021/08/04 14:18:11;;;;;;;6.13;3.10;;;27.30;1.00;;;;;;5015941;28;20394;-83
2021/08/04 14:20:38;;;;;;;2.87;2.67;;;27.30;1.00;;;;;;5015755;28;20526;-79
2021/08/04 14:23:06;;;;;;;3.13;2.80;;;27.30;1.00;;;;;;5015324;28;20611;-79
2021/08/04 14:25:32;;;;;;;4.23;2.80;;;;;;;;;;5015248;28;20551;-78
2021/08/04 14:27:58;;;;;;;4.03;3.03;;;;;;;;;;5026471;28;20498;-80
2021/08/04 14:30:24;;;;;;;5.03;2.30;;;27.00;1.00;;;;;;5015248;28;20453;-83
2021/08/04 14:32:51;;;;;;;3.20;2.83;;;;;;;;;;5022677;28;20464;-79
2021/08/04 14:35:20;;;;;;;7.80;3.00;;;;;;;;;;5034175;28;20282;-82
2021/08/04 14:37:46;;;;;;;4.73;2.50;;;;;;;;;;5026273;28;20499;-82
2021/08/04 14:40:12;;;;;;;5.63;2.77;;;;;;;;;;5014966;28;20494;-82
2021/08/04 14:42:38;;;;;;;3.03;2.70;;;26.20;1.00;;;;;;5030830;28;20417;-81
2021/08/04 14:45:05;;;;;;;3.93;2.60;;;26.20;1.00;;;;;;5031101;28;20435;-78
2021/08/04 14:47:31;;;;;;;3.10;2.80;;;26.20;1.00;;;;;;5034169;28;20191;-78
2021/08/04 14:49:57;;;;;;;2.67;2.40;;;26.20;1.00;;;;;;5029765;28;20445;-82
2021/08/04 14:52:22;;;;;;;2.90;2.70;;;26.20;1.00;;;;;;5029103;28;20635;-81
2021/08/04 14:54:48;;;;;;;2.63;2.43;;;26.20;1.00;;;;;;5032553;28;20177;-82
2021/08/04 14:57:15;;;;;;;3.03;2.40;;;26.40;1.00;;;;;;5027460;28;20203;-81
2021/08/04 15:03:38;;;;;;;4.87;1.90;;;26.60;1.00;;;;;;5032582;28;20437;-81
2021/08/04 15:13:14;;;;;;;2.80;2.60;;;26.50;1.00;;;;;;5014996;28;20499;-82
2021/08/04 15:19:18;;;;;;;2.10;2.00;;;26.50;1.00;;;;;;5027535;28;20430;-81
2021/08/04 15:22:14;;;;;;;2.40;2.20;;;26.50;1.00;;;;;;5034593;28;20416;-80
2021/08/04 15:25:26;;;;;;;4.20;2.23;;;26.60;1.00;;;;;;5034274;28;20430;-79
2021/08/04 15:28:14;;;;;;;2.10;2.00;;;26.60;1.00;;;;;;5034654;28;20417;-79
2021/08/04 15:30:40;;;;;;;5.50;1.90;;;26.60;1.00;;;;;;5033945;28;20441;-79
2021/08/04 15:33:14;;;;;;;2.50;2.30;;;26.50;1.00;;;;;;5033126;28;20406;-79
2021/08/04 15:35:50;;;;;;;2.40;2.20;;;26.50;1.00;;;;;;5034570;28;20432;-80
2021/08/04 15:38:26;;;;;;;1.97;1.77;;;26.50;1.00;;;;;;5034932;28;20445;-80
2021/08/04 15:41:20;;;;;;;2.10;2.00;;;26.50;1.00;;;;;;5033829;28;20497;-79
2021/08/04 15:50:57;;;;;;;6.53;1.83;;;26.20;1.00;;;;;;5020999;28;20570;-78
2021/08/04 15:53:27;;;;;;;4.03;1.90;;;26.20;1.00;;;;;;5034032;28;20399;-77
2021/08/04 15:55:52;;;;;;;2.03;1.93;;;26.00;1.00;;;;;;5034070;28;20409;-77
2021/08/04 15:58:18;;;;;;;2.80;1.87;;;26.00;1.00;;;;;;5034563;28;20484;-77
2021/08/04 16:00:44;;;;;;;2.47;2.10;;;25.80;1.00;;;;;;5033532;28;20170;-77
2021/08/04 16:03:10;;;;;;;2.13;1.93;;;25.60;1.00;;;;;;5028029;28;20630;-76
2021/08/04 16:05:45;;;;;;;2.30;2.20;;;25.60;1.00;;;;;;5034232;28;20667;-76
2021/08/04 16:08:12;;;;;;;2.10;2.00;;;25.60;1.00;;;;;;5033648;28;20414;-77
2021/08/04 16:10:38;;;;;;;2.10;2.00;;;25.40;1.00;;;;;;5032076;28;20427;-76
2021/08/04 16:13:03;;;;;;;2.50;2.30;;;25.40;1.00;;;;;;5032105;28;20410;-77
2021/08/04 16:16:03;;;;;;;2.77;2.57;;;25.20;1.00;;;;;;5032997;28;20412;-77
2021/08/04 16:18:56;;;;;;;3.50;3.20;;;24.90;1.00;;;;;;5034013;28;20406;-77
2021/08/04 16:24:44;;;;;;;4.30;2.83;;;24.70;1.00;;;;;;5021634;28;20776;-81
2021/08/04 16:27:38;;;;;;;3.43;3.13;;;24.70;1.00;;;;;;5032064;28;20433;-79
2021/08/04 16:30:05;;;;;;;3.30;3.03;;;24.90;1.00;;;;;;5013869;28;20557;-79
2021/08/04 16:33:26;;;;;;;3.20;2.90;;;25.10;1.00;;;;;;5019578;28;20524;-79
2021/08/04 16:36:41;;;;;;;3.50;3.17;;;24.90;1.00;;;;;;5032435;28;21180;-78
2021/08/04 16:46:15;;;;;;;3.17;2.93;;;24.80;1.00;;;;;;5032561;28;20409;-79
2021/08/04 16:49:14;;;;;;;3.20;2.90;;;24.60;1.00;;;;;;5029883;28;20421;-80
2021/08/04 16:55:03;;;;;;;3.73;3.43;;;24.20;1.00;;;;;;5033254;28;20380;-80
2021/08/04 16:58:00;;;;;;;3.90;3.50;;;24.10;1.00;;;;;;5033154;28;20445;-80
2021/08/04 17:07:09;;;;;;;6.07;3.70;;;24.60;1.00;;;;;;5023447;28;20453;-84
2021/08/04 17:13:20;;;;;;;3.57;2.70;;;24.90;1.00;;;;;;5013646;28;20198;-86
2021/08/04 17:19:13;;;;;;;5.73;3.20;;;24.60;1.00;;;;;;5027170;28;20409;-81
2021/08/04 17:21:39;;;;;;;3.83;3.33;;;24.30;1.00;;;;;;5033066;28;20398;-81
2021/08/04 17:27:26;;;;;;;7.20;3.63;;;23.90;1.00;;;;;;5036755;28;20499;-83